Time;durP1;ratioP1;P1;durP2;ratioP2;P2;SDS_P1;SDS_P2;PMS_P1;PMS_P2;Temp;Humidity;BMP_temperature;BMP_pressure;BME280_temperature;BME280_humidity;BME280_pressure;Samples;Min_cycle;Max_cycle;Signal;HPM_P1;HPM_P2
2023/02/15 00:01:36;;;;;;;18.35;11.13;;;;;10.00;102719.00;;;;5070320;28;20206;-75
2023/02/15 00:04:06;;;;;;;16.67;11.25;;;;;10.00;102720.00;;;;5052022;28;20227;-75
2023/02/15 00:06:35;;;;;;;16.23;11.68;;;;;10.00;102717.00;;;;5050491;28;20195;-75
2023/02/15 00:09:03;;;;;;;13.90;9.82;;;;;9.90;102716.00;;;;5050750;28;20199;-75
2023/02/15 00:11:49;;;;;;;17.17;10.85;;;;;10.00;102716.00;;;;5050730;28;20269;-75
2023/02/15 00:14:19;;;;;;;14.82;10.50;;;;;9.90;102716.00;;;;5056015;28;20256;-75
2023/02/15 00:16:47;;;;;;;16.10;11.07;;;;;9.90;102703.00;;;;5050525;28;20227;-75
2023/02/15 00:19:15;;;;;;;16.23;9.77;;;;;9.90;102705.00;;;;5050568;28;21161;-75
2023/02/15 00:21:44;;;;;;;15.23;10.18;;;;;9.90;102693.00;;;;5055277;28;20195;-75
2023/02/15 00:24:13;;;;;;;15.27;10.80;;;;;9.90;102698.00;;;;5065129;28;20202;-75
2023/02/15 00:26:42;;;;;;;15.88;10.02;;;;;9.90;102713.00;;;;5065520;28;20616;-75
2023/02/15 00:29:11;;;;;;;14.98;11.13;;;;;9.90;102708.00;;;;5065344;28;20187;-75
2023/02/15 00:31:38;;;;;;;14.52;10.23;;;;;9.90;102703.00;;;;5056600;28;20208;-75
2023/02/15 00:34:11;;;;;;;15.63;10.70;;;;;9.90;102699.00;;;;5059876;28;20195;-75
2023/02/15 00:36:38;;;;;;;14.40;10.02;;;;;9.90;102703.00;;;;5047872;28;20223;-75
2023/02/15 00:39:07;;;;;;;14.25;9.70;;;;;9.90;102696.00;;;;5053138;28;20575;-75
2023/02/15 00:41:35;;;;;;;19.13;11.05;;;;;9.90;102698.00;;;;5050284;28;20195;-75
2023/02/15 00:44:03;;;;;;;16.27;10.88;;;;;9.90;102681.00;;;;5065454;28;20206;-75
2023/02/15 00:46:30;;;;;;;14.77;10.98;;;;;9.90;102688.00;;;;5052987;28;20231;-75
2023/02/15 00:48:57;;;;;;;15.07;10.05;;;;;9.90;102681.00;;;;5050126;28;20195;-75
2023/02/15 00:51:26;;;;;;;17.45;10.45;;;;;9.90;102682.00;;;;5050778;28;20573;-75
2023/02/15 00:53:53;;;;;;;15.07;11.15;;;;;9.90;102685.00;;;;5053867;28;20195;-75
2023/02/15 00:56:22;;;;;;;15.02;10.60;;;;;9.90;102676.00;;;;5058566;28;20222;-75
2023/02/15 00:58:50;;;;;;;14.50;10.10;;;;;9.90;102678.00;;;;5054394;28;20209;-75
2023/02/15 01:01:19;;;;;;;16.48;10.30;;;;;9.90;102684.00;;;;5050421;28;20218;-75
2023/02/15 01:03:46;;;;;;;14.45;9.32;;;;;9.90;102690.00;;;;5069579;28;20222;-75
2023/02/15 01:06:15;;;;;;;13.95;9.70;;;;;9.80;102680.00;;;;5066458;28;20203;-75
2023/02/15 01:08:42;;;;;;;14.13;9.50;;;;;9.80;102676.00;;;;5054857;28;20557;-75
2023/02/15 01:11:11;;;;;;;14.77;9.45;;;;;9.80;102674.00;;;;5063142;28;20199;-75
2023/02/15 01:13:41;;;;;;;17.33;10.82;;;;;9.80;102673.00;;;;5057852;28;20207;-75
2023/02/15 01:16:09;;;;;;;17.40;11.13;;;;;9.80;102674.00;;;;5049741;28;20226;-75
2023/02/15 01:18:36;;;;;;;14.90;10.13;;;;;9.80;102675.00;;;;5048818;28;20580;-75
2023/02/15 01:21:11;;;;;;;15.02;9.85;;;;;9.70;102670.00;;;;5048415;28;20195;-76
2023/02/15 01:23:38;;;;;;;15.25;10.45;;;;;9.80;102664.00;;;;5058144;28;20741;-75
2023/02/15 01:26:05;;;;;;;14.65;9.73;;;;;9.70;102660.00;;;;5067465;28;20198;-76
2023/02/15 01:28:33;;;;;;;17.13;11.15;;;;;9.70;102650.00;;;;5068899;28;20206;-75
2023/02/15 01:31:06;;;;;;;19.10;10.32;;;;;9.70;102655.00;;;;5068119;28;20206;-76
2023/02/15 01:33:35;;;;;;;16.10;10.50;;;;;9.70;102641.00;;;;5065885;28;20935;-76
2023/02/15 01:36:03;;;;;;;13.93;10.18;;;;;9.70;102646.00;;;;5062419;28;20223;-75
2023/02/15 01:38:30;;;;;;;15.43;9.57;;;;;9.60;102650.00;;;;5068953;28;20202;-76
2023/02/15 01:41:19;;;;;;;14.27;10.25;;;;;9.60;102658.00;;;;5055768;28;20210;-75
2023/02/15 01:43:47;;;;;;;16.30;9.98;;;;;9.60;102651.00;;;;5050988;28;20222;-75
2023/02/15 01:46:18;;;;;;;14.00;9.45;;;;;9.60;102645.00;;;;5058171;28;20195;-76
2023/02/15 01:48:50;;;;;;;14.73;9.52;;;;;9.50;102645.00;;;;5063066;28;20575;-75
2023/02/15 01:51:22;;;;;;;13.93;9.80;;;;;9.60;102633.00;;;;5065090;28;20198;-76
2023/02/15 01:53:52;;;;;;;14.70;9.90;;;;;9.50;102639.00;;;;5062246;28;20194;-76
2023/02/15 01:56:23;;;;;;;15.63;9.55;;;;;9.50;102643.00;;;;5059374;28;20230;-76
2023/02/15 01:58:52;;;;;;;15.23;9.98;;;;;9.50;102641.00;;;;5050097;28;20291;-76
2023/02/15 02:01:21;;;;;;;12.77;9.02;;;;;9.50;102627.00;;;;5049042;28;20192;-76
2023/02/15 02:03:59;;;;;;;15.35;9.52;;;;;9.50;102624.00;;;;5055571;28;20242;-76
2023/02/15 02:06:27;;;;;;;15.27;9.35;;;;;9.50;102622.00;;;;5058465;28;20195;-76
2023/02/15 02:08:55;;;;;;;17.23;9.60;;;;;9.50;102622.00;;;;5062710;28;20195;-76
2023/02/15 02:11:23;;;;;;;15.57;10.07;;;;;9.50;102626.00;;;;5052664;28;20211;-76
2023/02/15 02:13:53;;;;;;;14.27;9.93;;;;;9.50;102621.00;;;;5052704;28;20660;-76
2023/02/15 02:16:29;;;;;;;15.23;10.32;;;;;9.50;102623.00;;;;5048209;28;20215;-76
2023/02/15 02:19:13;;;;;;;14.50;9.20;;;;;9.40;102621.00;;;;5054572;28;20195;-76
2023/02/15 02:22:21;;;;;;;13.80;9.88;;;;;9.40;102615.00;;;;5060686;28;20209;-76
2023/02/15 02:25:14;;;;;;;14.43;9.18;;;;;9.40;102606.00;;;;5042794;28;20188;-76
2023/02/15 02:27:45;;;;;;;15.10;9.73;;;;;9.50;102605.00;;;;5056097;28;20204;-76
2023/02/15 02:30:36;;;;;;;16.45;11.35;;;;;9.40;102604.00;;;;5049139;28;20207;-76
2023/02/15 02:33:45;;;;;;;16.83;10.95;;;;;9.30;102596.00;;;;5049066;28;20192;-76
2023/02/15 02:36:21;;;;;;;13.18;9.07;;;;;9.40;102592.00;;;;5063303;28;20701;-76
2023/02/15 02:39:03;;;;;;;13.98;9.38;;;;;9.40;102585.00;;;;5052301;28;20665;-76
2023/02/15 02:41:39;;;;;;;14.30;9.20;;;;;9.40;102587.00;;;;5058480;28;20206;-76
2023/02/15 02:44:14;;;;;;;13.93;9.80;;;;;9.40;102586.00;;;;5052531;28;20564;-76
2023/02/15 02:46:49;;;;;;;15.35;10.75;;;;;9.40;102595.00;;;;5056188;28;20226;-76
2023/02/15 02:49:28;;;;;;;16.52;10.90;;;;;9.50;102577.00;;;;5053130;28;20638;-76
2023/02/15 02:52:00;;;;;;;16.45;10.32;;;;;9.40;102581.00;;;;5052671;28;20195;-76
2023/02/15 02:54:28;;;;;;;15.48;10.18;;;;;9.50;102578.00;;;;5048256;28;20213;-76
2023/02/15 02:56:59;;;;;;;17.30;10.30;;;;;9.50;102574.00;;;;5047681;28;20230;-76
2023/02/15 02:59:30;;;;;;;15.57;10.70;;;;;9.50;102572.00;;;;5051553;28;20218;-76
2023/02/15 03:02:04;;;;;;;17.60;9.98;;;;;9.50;102567.00;;;;5060464;28;20191;-76
2023/02/15 03:04:36;;;;;;;17.50;10.57;;;;;9.50;102568.00;;;;5060979;28;20215;-76
2023/02/15 03:07:07;;;;;;;14.27;9.75;;;;;9.50;102565.00;;;;5057762;28;20202;-76
2023/02/15 03:09:42;;;;;;;14.38;10.45;;;;;9.50;102578.00;;;;5053748;28;20203;-76
2023/02/15 03:12:12;;;;;;;17.67;10.52;;;;;9.50;102566.00;;;;5064233;28;20237;-76
2023/02/15 03:14:41;;;;;;;13.98;10.18;;;;;9.50;102559.00;;;;5061311;28;20207;-76
2023/02/15 03:17:10;;;;;;;18.42;9.95;;;;;9.50;102559.00;;;;5069902;28;20226;-76
2023/02/15 03:19:39;;;;;;;15.90;10.65;;;;;9.50;102555.00;;;;5063394;28;20199;-76
2023/02/15 03:22:11;;;;;;;14.77;9.55;;;;;9.50;102543.00;;;;5052073;28;20207;-76
2023/02/15 03:24:44;;;;;;;14.60;9.95;;;;;9.50;102544.00;;;;5054053;28;20203;-76
2023/02/15 03:27:17;;;;;;;15.50;10.13;;;;;9.50;102548.00;;;;5051547;28;20196;-76
2023/02/15 03:29:46;;;;;;;17.27;10.65;;;;;9.50;102544.00;;;;5065338;28;20237;-76
2023/02/15 03:32:16;;;;;;;16.10;10.60;;;;;9.50;102534.00;;;;5063024;28;20203;-76
2023/02/15 03:34:45;;;;;;;14.93;10.05;;;;;9.50;102538.00;;;;5051653;28;20304;-76
2023/02/15 03:37:16;;;;;;;15.27;10.30;;;;;9.50;102542.00;;;;5060182;28;20221;-76
2023/02/15 03:39:49;;;;;;;14.48;9.48;;;;;9.50;102537.00;;;;5053641;28;20198;-76
2023/02/15 03:42:23;;;;;;;15.73;10.45;;;;;9.50;102537.00;;;;5055802;28;20211;-76
2023/02/15 03:44:56;;;;;;;16.67;10.48;;;;;9.50;102536.00;;;;5050682;28;20191;-76
2023/02/15 03:47:29;;;;;;;14.13;9.70;;;;;9.50;102533.00;;;;5065927;28;20230;-76
2023/02/15 03:50:01;;;;;;;16.15;10.98;;;;;9.50;102536.00;;;;5058863;28;20672;-76
2023/02/15 03:52:29;;;;;;;13.27;9.25;;;;;9.50;102535.00;;;;5069859;28;20194;-76
2023/02/15 03:54:57;;;;;;;14.00;9.63;;;;;9.50;102531.00;;;;5056546;28;20203;-76
2023/02/15 04:03:24;;;;;;;13.40;9.55;;;;;9.30;102532.00;;;;5052590;28;20206;-76
2023/02/15 04:05:53;;;;;;;15.50;9.50;;;;;9.40;102527.00;;;;5056397;28;20195;-76
2023/02/15 04:08:20;;;;;;;14.95;9.93;;;;;9.40;102519.00;;;;5054189;28;20191;-76
2023/02/15 04:10:52;;;;;;;14.02;9.23;;;;;9.40;102524.00;;;;5059755;28;20200;-76
2023/02/15 04:13:19;;;;;;;14.10;9.27;;;;;9.40;102528.00;;;;5050958;28;20207;-76
2023/02/15 04:16:04;;;;;;;14.25;9.57;;;;;9.40;102527.00;;;;5051662;28;20223;-76
2023/02/15 04:26:52;;;;;;;15.48;9.23;;;;;9.30;102523.00;;;;5053056;28;20218;-76
2023/02/15 04:29:20;;;;;;;15.57;8.52;;;;;9.30;102521.00;;;;5051284;28;20212;-76
2023/02/15 04:31:47;;;;;;;12.63;9.20;;;;;9.30;102517.00;;;;5053429;28;20550;-76
2023/02/15 04:34:15;;;;;;;12.85;9.23;;;;;9.30;102524.00;;;;5061575;28;20203;-75
2023/02/15 04:36:43;;;;;;;11.85;8.45;;;;;9.20;102518.00;;;;5054533;28;20226;-76
2023/02/15 04:39:14;;;;;;;13.27;9.07;;;;;9.20;102512.00;;;;5066219;28;20190;-76
2023/02/15 04:41:41;;;;;;;14.52;9.10;;;;;9.20;102512.00;;;;5068231;28;20206;-76
2023/02/15 04:44:09;;;;;;;14.00;9.32;;;;;9.20;102514.00;;;;5065991;28;20191;-76
2023/02/15 04:46:36;;;;;;;14.68;8.82;;;;;9.20;102512.00;;;;5063665;28;20234;-76
2023/02/15 04:49:05;;;;;;;14.73;9.05;;;;;9.20;102503.00;;;;5062160;28;20197;-76
2023/02/15 04:51:32;;;;;;;12.82;9.35;;;;;9.20;102513.00;;;;5056330;28;20195;-76
2023/02/15 04:54:00;;;;;;;14.52;9.57;;;;;9.20;102508.00;;;;5068520;28;20198;-76
2023/02/15 04:56:29;;;;;;;15.32;9.43;;;;;9.20;102502.00;;;;5060937;28;20207;-76
2023/02/15 04:58:57;;;;;;;13.07;9.07;;;;;9.20;102497.00;;;;5052999;28;20200;-76
2023/02/15 05:01:24;;;;;;;13.07;8.65;;;;;9.20;102507.00;;;;5062130;28;20203;-76
2023/02/15 05:03:51;;;;;;;14.20;9.00;;;;;9.20;102504.00;;;;5062540;28;20207;-76
2023/02/15 05:06:18;;;;;;;14.55;9.45;;;;;9.20;102496.00;;;;5067325;28;20202;-76
2023/02/15 05:08:46;;;;;;;14.55;9.38;;;;;9.10;102495.00;;;;5066302;28;20657;-76
2023/02/15 05:11:15;;;;;;;15.00;9.52;;;;;9.10;102500.00;;;;5066986;28;20206;-76
2023/02/15 05:13:42;;;;;;;15.80;9.77;;;;;9.10;102489.00;;;;5063368;28;20199;-76
2023/02/15 05:16:09;;;;;;;15.27;9.52;;;;;9.10;102490.00;;;;5058940;28;20202;-76
2023/02/15 05:18:36;;;;;;;18.50;10.43;;;;;9.10;102484.00;;;;5060499;28;20219;-76
2023/02/15 05:21:04;;;;;;;14.70;10.10;;;;;9.10;102486.00;;;;5053502;28;20195;-76
2023/02/15 05:23:31;;;;;;;14.27;9.40;;;;;9.10;102488.00;;;;5064543;28;20203;-75
2023/02/15 05:28:45;;;;;;;13.45;8.88;;;;;9.10;102492.00;;;;5057003;28;20259;-76
2023/02/15 05:31:14;;;;;;;12.70;8.82;;;;;9.00;102487.00;;;;5057558;28;20198;-76
2023/02/15 05:33:42;;;;;;;15.10;8.85;;;;;9.10;102488.00;;;;5057504;28;20207;-76
2023/02/15 05:36:10;;;;;;;13.73;9.85;;;;;9.00;102482.00;;;;5062108;28;20206;-76
2023/02/15 05:38:38;;;;;;;15.23;9.48;;;;;9.00;102482.00;;;;5055855;28;20227;-76
2023/02/15 05:41:06;;;;;;;12.18;8.27;;;;;9.00;102482.00;;;;5049260;28;20206;-76
2023/02/15 05:43:34;;;;;;;12.70;9.35;;;;;9.00;102486.00;;;;5051079;28;20207;-76
2023/02/15 05:46:04;;;;;;;13.43;9.35;;;;;9.00;102487.00;;;;5056610;28;20198;-76
2023/02/15 05:48:31;;;;;;;15.00;9.32;;;;;9.00;102491.00;;;;5065098;28;20203;-76
2023/02/15 05:51:00;;;;;;;14.32;9.00;;;;;9.00;102494.00;;;;5068173;28;20202;-76
2023/02/15 05:53:28;;;;;;;15.10;9.45;;;;;9.00;102496.00;;;;5059890;28;20203;-76
2023/02/15 05:55:58;;;;;;;12.30;9.00;;;;;9.00;102498.00;;;;5056923;28;20689;-75
2023/02/15 05:58:26;;;;;;;14.18;9.80;;;;;9.00;102497.00;;;;5064551;28;20309;-75
2023/02/15 06:00:54;;;;;;;15.95;9.45;;;;;9.00;102487.00;;;;5058570;28;20215;-74
2023/02/15 06:03:23;;;;;;;15.95;9.35;;;;;8.90;102489.00;;;;5050415;28;20219;-75
2023/02/15 06:05:50;;;;;;;13.32;8.85;;;;;9.00;102482.00;;;;5059905;28;20584;-75
2023/02/15 06:08:18;;;;;;;14.23;9.57;;;;;8.90;102489.00;;;;5062568;28;20594;-75
2023/02/15 06:10:46;;;;;;;15.77;9.45;;;;;8.90;102488.00;;;;5058916;28;20194;-75
2023/02/15 06:13:14;;;;;;;14.60;9.20;;;;;8.90;102482.00;;;;5062194;28;20192;-75
2023/02/15 06:15:41;;;;;;;15.20;9.95;;;;;8.90;102481.00;;;;5052365;28;20198;-75
2023/02/15 06:18:08;;;;;;;15.00;9.60;;;;;8.90;102477.00;;;;5058547;28;20233;-75
2023/02/15 06:20:37;;;;;;;15.57;10.30;;;;;8.90;102481.00;;;;5063902;28;20191;-75
2023/02/15 06:23:04;;;;;;;15.25;8.88;;;;;8.90;102481.00;;;;5062913;28;20190;-75
2023/02/15 06:25:32;;;;;;;15.10;10.20;;;;;8.90;102472.00;;;;5057140;28;20187;-75
2023/02/15 06:27:59;;;;;;;16.55;10.20;;;;;8.80;102475.00;;;;5066623;28;20214;-75
2023/02/15 06:30:26;;;;;;;18.83;9.77;;;;;8.80;102479.00;;;;5058221;28;20210;-75
2023/02/15 06:32:54;;;;;;;16.65;10.73;;;;;8.80;102481.00;;;;5052503;28;20199;-75
2023/02/15 06:35:22;;;;;;;13.63;9.32;;;;;8.80;102481.00;;;;5058375;28;20210;-75
2023/02/15 06:37:51;;;;;;;14.02;9.45;;;;;8.80;102478.00;;;;5059157;28;20254;-76
2023/02/15 06:40:18;;;;;;;15.07;9.93;;;;;8.80;102477.00;;;;5055364;28;20576;-76
2023/02/15 06:42:46;;;;;;;15.57;9.85;;;;;8.80;102471.00;;;;5061369;28;20195;-75
2023/02/15 06:45:13;;;;;;;13.27;9.70;;;;;8.80;102474.00;;;;5058326;28;20200;-76
2023/02/15 06:47:40;;;;;;;15.95;9.35;;;;;8.80;102471.00;;;;5055021;28;20644;-75
2023/02/15 06:50:10;;;;;;;13.75;9.52;;;;;8.70;102477.00;;;;5051961;28;20207;-75
2023/02/15 06:52:37;;;;;;;14.82;9.93;;;;;8.80;102476.00;;;;5060181;28;20241;-76
2023/02/15 06:55:06;;;;;;;16.33;9.95;;;;;8.70;102472.00;;;;5063545;28;20214;-75
2023/02/15 06:57:34;;;;;;;13.88;9.27;;;;;8.80;102474.00;;;;5058720;28;20579;-75
2023/02/15 07:00:01;;;;;;;25.17;17.17;;;;;8.70;102463.00;;;;5054379;28;20845;-75
2023/02/15 07:02:28;;;;;;;21.48;13.93;;;;;8.90;102478.00;;;;5057051;28;20282;-76
2023/02/15 07:04:56;;;;;;;16.80;11.65;;;;;8.90;102473.00;;;;5066563;28;20333;-75
2023/02/15 07:07:23;;;;;;;16.15;10.38;;;;;8.90;102470.00;;;;5061121;28;20195;-75
2023/02/15 07:09:51;;;;;;;18.77;10.98;;;;;8.90;102476.00;;;;5067161;28;20199;-75
2023/02/15 07:15:05;;;;;;;14.88;9.88;;;;;8.90;102469.00;;;;5054708;28;20229;-76
2023/02/15 07:17:33;;;;;;;14.82;10.57;;;;;8.90;102473.00;;;;5049992;28;20731;-75
2023/02/15 07:20:00;;;;;;;16.10;10.10;;;;;8.90;102475.00;;;;5051785;28;20199;-75
2023/02/15 07:22:27;;;;;;;14.77;10.02;;;;;9.00;102475.00;;;;5062865;28;20217;-75
2023/02/15 07:24:55;;;;;;;15.73;10.15;;;;;9.00;102466.00;;;;5070299;28;20214;-75
2023/02/15 07:27:23;;;;;;;15.40;10.90;;;;;9.00;102458.00;;;;5063254;28;20284;-75
2023/02/15 07:29:51;;;;;;;14.98;10.55;;;;;9.00;102451.00;;;;5052065;28;20204;-75
2023/02/15 07:32:18;;;;;;;15.35;10.23;;;;;9.00;102450.00;;;;5062505;28;20191;-75
2023/02/15 07:34:45;;;;;;;17.98;11.52;;;;;9.00;102448.00;;;;5051967;28;20204;-75
2023/02/15 07:37:13;;;;;;;14.85;10.63;;;;;9.00;102444.00;;;;5069461;28;20653;-75
2023/02/15 07:39:40;;;;;;;17.73;11.30;;;;;9.00;102452.00;;;;5069254;28;20195;-75
2023/02/15 07:42:07;;;;;;;15.95;10.98;;;;;9.00;102443.00;;;;5071031;28;20209;-75
2023/02/15 07:44:36;;;;;;;18.60;11.18;;;;;9.00;102441.00;;;;5055672;28;20204;-75
2023/02/15 07:47:03;;;;;;;17.63;11.18;;;;;9.00;102448.00;;;;5054711;28;20590;-75
2023/02/15 07:49:30;;;;;;;16.58;10.93;;;;;9.10;102445.00;;;;5068828;28;20214;-75
2023/02/15 07:51:58;;;;;;;17.60;10.95;;;;;9.10;102438.00;;;;5051245;28;20203;-75
2023/02/15 07:54:25;;;;;;;19.85;11.00;;;;;9.10;102431.00;;;;5050950;28;20199;-75
2023/02/15 07:56:52;;;;;;;16.05;10.95;;;;;9.10;102436.00;;;;5061075;28;20195;-75
2023/02/15 07:59:19;;;;;;;16.90;11.13;;;;;9.20;102428.00;;;;5054903;28;20239;-75
2023/02/15 08:01:48;;;;;;;17.67;11.10;;;;;9.20;102430.00;;;;5059511;28;20298;-75
2023/02/15 08:04:16;;;;;;;17.25;11.15;;;;;9.20;102428.00;;;;5051062;28;20582;-75
2023/02/15 08:06:43;;;;;;;18.30;11.27;;;;;9.20;102421.00;;;;5056240;28;20653;-75
2023/02/15 08:09:11;;;;;;;17.00;11.57;;;;;9.30;102426.00;;;;5050436;28;20814;-75
2023/02/15 08:11:40;;;;;;;20.48;11.93;;;;;9.30;102416.00;;;;5067338;28;20199;-75
2023/02/15 08:14:10;;;;;;;17.55;11.18;;;;;9.40;102419.00;;;;5056218;28;20195;-75
2023/02/15 08:16:39;;;;;;;17.42;11.27;;;;;9.40;102406.00;;;;5064154;28;20198;-77
2023/02/15 08:19:09;;;;;;;17.77;12.13;;;;;9.40;102416.00;;;;5063402;28;20229;-76
2023/02/15 08:21:38;;;;;;;17.85;12.07;;;;;9.50;102415.00;;;;5062893;28;20677;-76
2023/02/15 08:24:07;;;;;;;21.00;12.35;;;;;9.50;102423.00;;;;5055027;28;20191;-76
2023/02/15 08:26:35;;;;;;;17.80;11.93;;;;;9.60;102423.00;;;;5055619;28;20195;-76
2023/02/15 08:29:03;;;;;;;20.17;12.60;;;;;9.60;102418.00;;;;5066179;28;20618;-76
2023/02/15 08:31:30;;;;;;;20.23;12.13;;;;;9.60;102419.00;;;;5069944;28;20198;-76
2023/02/15 08:33:58;;;;;;;17.38;11.73;;;;;9.70;102415.00;;;;5062985;28;20187;-76
2023/02/15 08:36:29;;;;;;;17.67;11.50;;;;;9.70;102415.00;;;;5069750;28;20214;-76
2023/02/15 08:38:58;;;;;;;19.10;12.38;;;;;9.80;102409.00;;;;5069353;28;20219;-77
2023/02/15 08:41:27;;;;;;;19.35;12.27;;;;;9.80;102404.00;;;;5070138;28;20564;-76
2023/02/15 08:43:57;;;;;;;19.15;11.55;;;;;9.90;102404.00;;;;5069386;28;20205;-76
2023/02/15 08:46:26;;;;;;;21.20;12.30;;;;;9.90;102399.00;;;;5069513;28;20191;-77
2023/02/15 08:48:53;;;;;;;22.60;13.18;;;;;10.00;102406.00;;;;5065656;28;20980;-76
2023/02/15 08:51:23;;;;;;;20.58;13.02;;;;;10.00;102410.00;;;;5052658;28;20196;-77
2023/02/15 08:53:53;;;;;;;21.60;13.75;;;;;10.10;102409.00;;;;5056691;28;20214;-76
2023/02/15 08:56:24;;;;;;;21.20;13.63;;;;;10.10;102401.00;;;;5050375;28;20204;-76
2023/02/15 08:58:51;;;;;;;21.63;13.43;;;;;10.20;102404.00;;;;5052892;28;20219;-76
2023/02/15 09:01:21;;;;;;;19.65;12.73;;;;;10.20;102400.00;;;;5059744;28;20203;-76
2023/02/15 09:03:52;;;;;;;20.55;13.50;;;;;10.30;102402.00;;;;5048931;28;20219;-77
2023/02/15 09:06:20;;;;;;;21.00;13.85;;;;;10.30;102398.00;;;;5049032;28;20238;-76
2023/02/15 09:08:47;;;;;;;21.00;13.25;;;;;10.40;102398.00;;;;5049013;28;20199;-76
2023/02/15 09:11:22;;;;;;;22.05;13.93;;;;;10.40;102399.00;;;;5062134;28;20203;-76
2023/02/15 09:13:50;;;;;;;17.30;12.00;;;;;10.50;102397.00;;;;5051683;28;20583;-77
2023/02/15 09:16:18;;;;;;;19.95;12.60;;;;;10.60;102393.00;;;;5068789;28;20196;-76
2023/02/15 09:18:46;;;;;;;18.48;13.07;;;;;10.70;102397.00;;;;5056555;28;20227;-76
2023/02/15 09:21:15;;;;;;;20.30;13.23;;;;;10.70;102393.00;;;;5049557;28;20200;-76
2023/02/15 09:23:43;;;;;;;19.42;13.35;;;;;10.80;102392.00;;;;5057208;28;20206;-76
2023/02/15 09:26:12;;;;;;;24.73;14.48;;;;;10.90;102382.00;;;;5057423;28;20553;-76
2023/02/15 09:28:41;;;;;;;21.67;13.90;;;;;11.00;102385.00;;;;5055467;28;20206;-76
2023/02/15 09:31:11;;;;;;;22.30;14.95;;;;;11.10;102394.00;;;;5048656;28;20822;-76
2023/02/15 09:33:39;;;;;;;20.15;13.75;;;;;11.20;102390.00;;;;5045623;28;20199;-76
2023/02/15 09:36:15;;;;;;;20.40;13.85;;;;;11.30;102384.00;;;;5048340;28;20231;-76
2023/02/15 09:38:42;;;;;;;21.25;13.98;;;;;11.40;102385.00;;;;5049790;28;20227;-76
2023/02/15 09:41:31;;;;;;;22.95;14.27;;;;;11.40;102384.00;;;;5064266;28;20191;-76
2023/02/15 09:44:07;;;;;;;22.52;14.70;;;;;11.50;102382.00;;;;5062455;28;20668;-76
2023/02/15 09:46:50;;;;;;;20.77;13.77;;;;;11.60;102383.00;;;;5051390;28;20219;-76
2023/02/15 09:49:25;;;;;;;21.40;14.98;;;;;11.60;102377.00;;;;5047034;28;20677;-76
2023/02/15 09:52:09;;;;;;;21.10;13.65;;;;;11.70;102388.00;;;;5057521;28;20197;-77
2023/02/15 09:54:51;;;;;;;22.00;14.55;;;;;11.80;102385.00;;;;5051977;28;20200;-76
2023/02/15 09:57:28;;;;;;;20.73;13.70;;;;;11.80;102391.00;;;;5048223;28;20203;-76
2023/02/15 10:00:05;;;;;;;26.13;16.08;;;;;11.90;102388.00;;;;5055399;28;20230;-76
2023/02/15 10:02:51;;;;;;;21.35;15.23;;;;;12.00;102397.00;;;;5067904;28;20665;-76
2023/02/15 10:05:34;;;;;;;19.92;13.40;;;;;12.10;102399.00;;;;5051680;28;20216;-77
2023/02/15 10:08:39;;;;;;;19.77;14.20;;;;;12.10;102402.00;;;;5047100;28;20658;-76
2023/02/15 10:14:10;;;;;;;23.75;15.02;;;;;12.40;102410.00;;;;5052401;28;20868;-76
2023/02/15 10:16:46;;;;;;;24.60;14.68;;;;;12.50;102402.00;;;;5052225;28;20211;-77
2023/02/15 10:19:24;;;;;;;25.55;16.23;;;;;12.60;102398.00;;;;5050204;28;20222;-76
2023/02/15 10:22:04;;;;;;;24.10;16.05;;;;;12.60;102400.00;;;;5046881;28;20187;-77
2023/02/15 10:24:43;;;;;;;25.58;16.40;;;;;12.70;102398.00;;;;5049534;28;20669;-77
2023/02/15 10:27:14;;;;;;;21.85;14.70;;;;;12.90;102393.00;;;;5047170;28;20218;-77
2023/02/15 10:29:49;;;;;;;25.48;15.52;;;;;12.90;102401.00;;;;5059100;28;20206;-77
2023/02/15 10:32:24;;;;;;;23.27;15.45;;;;;13.00;102403.00;;;;5048477;28;20199;-77
2023/02/15 10:34:55;;;;;;;23.48;15.05;;;;;13.20;102402.00;;;;5063792;28;20239;-77
2023/02/15 10:37:48;;;;;;;24.98;14.68;;;;;13.20;102403.00;;;;5048315;28;20207;-77
2023/02/15 10:40:26;;;;;;;19.50;14.32;;;;;13.30;102407.00;;;;5064757;28;20230;-77
2023/02/15 10:43:15;;;;;;;21.77;13.95;;;;;13.40;102412.00;;;;5052210;28;20680;-77
2023/02/15 10:45:51;;;;;;;24.90;14.38;;;;;13.50;102406.00;;;;5060310;28;20195;-77
2023/02/15 10:48:51;;;;;;;22.30;14.93;;;;;13.60;102410.00;;;;5063252;28;20740;-77
2023/02/15 10:51:29;;;;;;;21.80;13.68;;;;;13.70;102419.00;;;;5037769;28;20202;-77
2023/02/15 10:54:06;;;;;;;22.33;13.93;;;;;13.80;102418.00;;;;5047651;28;20198;-77
2023/02/15 10:56:39;;;;;;;23.83;15.70;;;;;13.90;102401.00;;;;5046360;28;20195;-76
2023/02/15 10:59:20;;;;;;;24.13;14.82;;;;;14.00;102401.00;;;;5045741;28;20230;-76
2023/02/15 11:01:54;;;;;;;20.10;14.18;;;;;14.10;102401.00;;;;5050698;28;20586;-77
2023/02/15 11:04:46;;;;;;;21.38;14.68;;;;;14.20;102396.00;;;;5047838;28;20223;-76
2023/02/15 11:07:19;;;;;;;21.42;13.98;;;;;14.40;102391.00;;;;5048144;28;20207;-77
2023/02/15 11:09:50;;;;;;;20.83;14.85;;;;;14.50;102391.00;;;;5050861;28;20199;-77
2023/02/15 11:12:20;;;;;;;20.42;15.32;;;;;14.60;102385.00;;;;5057773;28;20207;-76
2023/02/15 11:14:54;;;;;;;23.33;15.18;;;;;14.70;102374.00;;;;5047815;28;20200;-76
2023/02/15 11:17:25;;;;;;;22.50;14.35;;;;;14.80;102381.00;;;;5053495;28;20196;-76
2023/02/15 11:20:01;;;;;;;22.25;14.43;;;;;14.90;102375.00;;;;5062716;28;20219;-76
2023/02/15 11:22:28;;;;;;;23.90;15.93;;;;;15.00;102372.00;;;;5061723;28;20192;-76
2023/02/15 11:24:59;;;;;;;25.02;15.25;;;;;15.10;102369.00;;;;5062935;28;20211;-77
2023/02/15 11:27:32;;;;;;;21.58;15.05;;;;;15.20;102367.00;;;;5066040;28;20203;-77
2023/02/15 11:30:02;;;;;;;21.55;14.70;;;;;15.30;102364.00;;;;5066043;28;20200;-77
2023/02/15 11:32:33;;;;;;;21.88;15.10;;;;;15.40;102364.00;;;;5054453;28;20191;-77
2023/02/15 11:35:04;;;;;;;22.55;15.77;;;;;15.40;102358.00;;;;5057664;28;20200;-77
2023/02/15 11:37:37;;;;;;;23.58;15.00;;;;;15.50;102354.00;;;;5058391;28;20233;-77
2023/02/15 11:40:22;;;;;;;26.40;16.17;;;;;15.50;102346.00;;;;5049872;28;20223;-77
2023/02/15 11:42:50;;;;;;;19.52;13.63;;;;;15.70;102336.00;;;;5060463;28;20191;-77
2023/02/15 11:45:26;;;;;;;21.77;14.93;;;;;15.70;102341.00;;;;5050398;28;20230;-77
2023/02/15 11:47:54;;;;;;;19.98;14.48;;;;;15.90;102323.00;;;;5054162;28;20214;-77
2023/02/15 11:50:25;;;;;;;22.63;14.77;;;;;16.00;102321.00;;;;5051973;28;20207;-77
2023/02/15 11:52:57;;;;;;;20.02;14.57;;;;;16.10;102314.00;;;;5057887;28;20203;-77
2023/02/15 11:55:26;;;;;;;23.02;15.68;;;;;16.20;102302.00;;;;5056717;28;20191;-77
2023/02/15 11:57:58;;;;;;;23.00;15.27;;;;;16.20;102299.00;;;;5050831;28;20249;-77
2023/02/15 12:00:35;;;;;;;23.50;14.95;;;;;16.30;102300.00;;;;5070823;28;20241;-77
2023/02/15 12:03:08;;;;;;;23.70;15.07;;;;;16.50;102299.00;;;;5055345;28;20755;-77
2023/02/15 12:05:41;;;;;;;24.30;16.05;;;;;16.50;102295.00;;;;5066182;28;20759;-77
2023/02/15 12:08:17;;;;;;;24.27;15.80;;;;;16.60;102305.00;;;;5050889;28;20191;-77
2023/02/15 12:10:53;;;;;;;24.83;17.00;;;;;16.70;102309.00;;;;5049767;28;20203;-77
2023/02/15 12:13:22;;;;;;;24.08;15.27;;;;;16.80;102308.00;;;;5050461;28;20275;-77
2023/02/15 12:15:51;;;;;;;25.08;15.48;;;;;16.90;102302.00;;;;5057263;28;20199;-78
2023/02/15 12:18:34;;;;;;;25.15;15.68;;;;;17.00;102296.00;;;;5050146;28;20215;-77
2023/02/15 12:21:07;;;;;;;23.98;15.80;;;;;17.00;102302.00;;;;5049797;28;20251;-78
2023/02/15 12:23:36;;;;;;;22.92;15.32;;;;;17.10;102301.00;;;;5060462;28;20236;-78
2023/02/15 12:26:04;;;;;;;24.67;16.25;;;;;17.20;102302.00;;;;5058661;28;20576;-77
2023/02/15 12:28:35;;;;;;;27.10;17.50;;;;;17.30;102306.00;;;;5055844;28;20213;-77
2023/02/15 12:31:06;;;;;;;27.25;16.23;;;;;17.40;102303.00;;;;5052679;28;20195;-76
2023/02/15 12:33:36;;;;;;;24.17;16.30;;;;;17.50;102294.00;;;;5058734;28;20250;-77
2023/02/15 12:36:13;;;;;;;24.73;15.93;;;;;17.50;102284.00;;;;5060116;28;20200;-77
2023/02/15 12:38:40;;;;;;;25.95;16.77;;;;;17.70;102282.00;;;;5053735;28;20191;-77
2023/02/15 12:41:24;;;;;;;22.42;16.15;;;;;17.70;102281.00;;;;5064542;28;20223;-77